Station: Renmark Airport

  Atmospheric Gas Attenuation - ITU Rec 676-11   --------------- db/100km ---------------
Date Time Temp RH % AH g/m3 Dew Point Wind Direction Speed kph Gust kph Barometer mB Rainfall Since 9am 24GHz 47GHz 76GHz 122GHz 134GHz 241GHz
24 19:20 40.6 10 5.26 3.1 20 24 1001 0 11.7 15.5 19.6 51.0 40.9 139.5
24 19:10 40.5 10 5.24 3 19 24 1001 0 11.6 15.4 19.6 50.9 40.8 139.1
24 19:00 40.9 10 5.34 3.3 22 35 1000.8 0 11.8 15.5 19.7 51.3 41.4 141.3
24 18:50 41 10 5.37 3.4 22 26 1000.8 0 11.9 15.5 19.8 51.4 41.6 142.0
24 18:40 41.4 9 4.93 2.2 22 26 1000.8 0 11.0 15.0 18.6 48.3 37.9 128.8
24 18:30 41.3 10 5.45 3.6 24 35 1000.7 0 12.0 15.5 19.9 51.8 42.1 143.8
24 18:20 41.3 10 5.45 3.6 26 30 1000.7 0 12.0 15.5 19.9 51.8 42.1 143.8
24 18:10 41.7 10 5.56 3.9 28 35 1000.7 0 12.2 15.6 20.1 52.3 42.8 146.4
24 18:00 41.7 9 5 2.4 19 28 1000.7 0 11.1 15.0 18.7 48.6 38.3 130.4
24 17:50 41.7 9 5 2.4 22 24 1000.9 0 11.1 15.0 18.7 48.6 38.3 130.4
24 17:40 42.1 9 5.1 2.7 22 26 1000.9 0 11.3 15.1 18.9 49.1 38.9 132.6
24 17:30 43 9 5.34 3.4 26 35 1000.9 0 11.8 15.2 19.3 50.1 40.4 138.0
24 17:20 42.2 9 5.13 2.8 22 26 1001.1 0 11.4 15.1 18.9 49.2 39.1 133.3
24 17:10 42.2 9 5.13 2.8 20 24 1001.2 0 11.4 15.1 18.9 49.2 39.1 133.4
24 17:00 43.2 8 4.79 1.9 28 39 1001.2 0 10.6 14.6 17.9 46.5 36.0 122.4
24 16:50 42.8 9 5.28 3.2 24 32 1001.5 0 11.6 15.1 19.2 49.9 40.1 136.7
24 16:40 43.1 9 5.36 3.4 26 35 1001.6 0 11.8 15.2 19.3 50.2 40.6 138.5
24 16:30 42.5 9 5.21 3 22 39 1001.5 0 11.5 15.1 19.1 49.6 39.7 135.2
24 16:20 42.6 9 5.23 3.1 22 24 1001.7 0 11.5 15.1 19.1 49.7 39.8 135.6
24 16:10 42.5 9 5.21 3 24 28 1001.9 0 11.5 15.1 19.1 49.6 39.7 135.3
24 16:00 42.1 8 4.54 1.1 26 41 1001.9 0 10.2 14.5 17.5 45.5 34.5 117.0
24 15:50 43.7 8 4.91 2.2 19 28 1001.9 0 10.9 14.7 18.1 47.0 36.8 125.1
24 15:40 44 8 4.98 2.4 28 37 1002.1 0 11.0 14.7 18.2 47.3 37.2 126.7
24 15:30 42.1 9 5.1 2.7 24 33 1002.2 0 11.3 15.1 18.9 49.1 39.0 132.8
24 15:20 43.8 8 4.93 2.3 30 35 1002.4 0 10.9 14.7 18.1 47.1 36.9 125.6
24 15:10 42.6 8 4.65 1.4 28 33 1002.6 0 10.4 14.6 17.7 46.0 35.2 119.5
24 15:00 43.2 8 4.79 1.9 20 37 1002.8 0 10.6 14.6 17.9 46.6 36.1 122.6
24 14:50 42.5 8 4.63 1.3 24 30 1003 0 10.3 14.6 17.7 45.9 35.1 119.1
24 14:40 42.8 8 4.7 1.6 24 28 1003.3 0 10.5 14.6 17.8 46.2 35.5 120.7
24 14:30 42.8 8 4.7 1.6 26 37 1003.3 0 10.5 14.6 17.8 46.2 35.5 120.7
24 14:20 43.2 8 4.79 1.9 20 28 1003.4 0 10.6 14.7 18.0 46.6 36.1 122.7
24 14:10 41.7 9 5 2.4 22 26 1003.6 0 11.1 15.1 18.8 48.8 38.4 130.7
24 14:00 42.6 9 5.23 3.1 17 28 1003.7 0 11.5 15.2 19.1 49.8 39.9 135.9
24 13:50 42.8 8 4.7 1.6 19 24 1003.8 0 10.5 14.6 17.8 46.3 35.6 120.8
24 13:40 43.1 9 5.36 3.4 22 26 1004 0 11.8 15.2 19.4 50.4 40.7 138.8
24 13:30 42.1 9 5.1 2.7 28 39 1004.2 0 11.3 15.1 19.0 49.2 39.1 133.0
24 13:20 43.1 8 4.77 1.8 32 39 1004.3 0 10.6 14.7 18.0 46.6 36.0 122.4
24 13:10 43 9 5.34 3.4 24 30 1004.3 0 11.8 15.2 19.3 50.3 40.6 138.5
24 13:00 42.6 9 5.23 3.1 24 37 1004.6 0 11.5 15.2 19.2 49.8 39.9 136.0
24 12:50 41.9 9 5.05 2.6 28 32 1004.8 0 11.2 15.1 18.9 49.1 38.8 132.0
24 12:40 42.5 9 5.21 3 22 26 1005 0 11.5 15.2 19.2 49.8 39.8 135.6
24 12:30 42.2 10 5.7 4.3 24 41 1005.1 0 12.5 15.8 20.4 53.2 43.9 150.2
24 12:20 41.7 10 5.56 3.9 33 39 1005.2 0 12.2 15.7 20.2 52.6 43.0 147.0
24 12:10 41.8 10 5.59 4 19 22 1005.4 0 12.3 15.7 20.3 52.7 43.2 147.7
24 12:00 40.7 10 5.29 3.1 30 41 1005.5 0 11.7 15.6 19.8 51.4 41.3 140.8
24 11:50 41.2 10 5.42 3.5 35 39 1005.7 0 12.0 15.6 20.0 52.0 42.1 143.8
24 11:40 41.5 10 5.51 3.7 32 39 1005.7 0 12.1 15.7 20.1 52.4 42.7 145.9
24 11:30 40.8 10 5.32 3.2 32 44 1006 0 11.8 15.6 19.8 51.5 41.5 141.6
24 11:20 40.6 10 5.26 3.1 33 41 1006.1 0 11.7 15.6 19.7 51.3 41.1 140.2
24 11:10 40 10 5.11 2.6 20 24 1006.2 0 11.4 15.5 19.5 50.6 40.2 136.7
24 11:00 38.7 10 4.78 1.6 22 30 1006.3 0 10.8 15.4 18.9 49.1 38.0 129.1
24 10:50 38.1 10 4.64 1.2 26 30 1006.4 0 10.5 15.3 18.7 48.5 37.1 125.8
24 10:40 37.5 11 4.95 2.1 20 26 1006.5 0 11.1 15.8 19.6 51.0 40.0 135.9
24 10:30 37.6 11 4.98 2.1 17 22 1006.5 0 11.2 15.8 19.7 51.1 40.2 136.6
24 10:20 36.1 12 5.03 2.2 20 22 1006.6 0 11.3 16.1 20.2 52.4 41.3 140.5
24 10:10 35.2 12 4.8 1.5 19 22 1006.7 0 10.9 16.0 19.8 51.3 39.8 134.9
24 10:00 35.1 13 5.17 2.6 17 22 1006.7 0 11.6 16.4 20.8 54.0 43.0 146.5
24 09:50 33.8 13 4.83 1.6 20 24 1006.9 0 11.0 16.2 20.2 52.4 40.7 138.1
24 09:40 32.5 16 5.55 3.5 13 17 1006.9 0 12.5 17.3 22.5 58.4 47.8 163.2
24 09:30 32.7 16 5.61 3.6 15 20 1007 0 12.6 17.3 22.6 58.8 48.3 164.7
24 09:20 31.3 17 5.53 3.4 19 20 1007 0 12.5 17.5 22.7 59.1 48.3 164.8
24 09:10 31.4 18 5.89 4.2 17 19 1007.1 0 13.2 17.9 23.7 61.8 51.7 176.5
24 09:00 31 18 5.76 3.9 17 22 1007 0 13.0 17.8 23.4 61.1 50.7 173.0
24 08:50 29.9 23 6.94 6.5 15 17 1007.1 0 15.4 19.4 27.2 71.2 62.9 215.9
24 08:40 28.5 25 6.99 6.6 9 11 1007.1 0 15.6 19.8 27.9 72.8 64.5 221.3
24 08:30 27.6 26 6.92 6.4 11 13 1007.2 0 15.5 19.9 27.9 73.0 64.5 221.2
24 08:20 27.4 26 6.84 6.2 11 13 1007.2 0 15.3 19.8 27.8 72.5 63.8 218.8
24 08:10 27.5 26 6.88 6.3 9 11 1007.2 0 15.4 19.8 27.8 72.8 64.1 220.0
24 08:00 27.6 26 6.92 6.4 13 17 1007.2 0 15.5 19.9 27.9 73.0 64.5 221.2
24 07:50 27.5 26 6.88 6.3 13 15 1007.1 0 15.4 19.8 27.8 72.8 64.1 220.0
24 07:40 26.7 28 7.09 6.7 11 13 1007.1 0 15.9 20.3 28.8 75.3 66.9 229.8
24 07:30 26.5 27 6.76 6 9 13 1007.1 0 15.2 19.9 27.8 72.6 63.7 218.2
24 07:20 24.6 30 6.75 5.9 7 9 1007.1 0 15.2 20.3 28.4 74.2 65.0 222.9
24 07:10 23.8 31 6.67 5.7 9 9 1007.1 0 15.1 20.3 28.4 74.3 64.8 222.0
24 07:00 23.6 31 6.59 5.5 11 13 1007.2 0 14.9 20.3 28.2 73.8 64.1 219.6
24 06:50 23.8 31 6.67 5.7 11 11 1007.1 0 15.1 20.3 28.4 74.3 64.8 222.0
24 06:40 24.2 29 6.38 5.1 13 13 1007.2 0 14.5 19.9 27.4 71.4 61.4 210.2
24 06:30 24.3 29 6.42 5.1 11 13 1006.9 0 14.6 19.9 27.4 71.7 61.8 211.4
24 06:20 23.8 30 6.45 5.2 9 11 1006.9 0 14.6 20.0 27.7 72.3 62.5 213.8
24 06:10 24.3 29 6.42 5.1 11 11 1006.8 0 14.6 19.9 27.4 71.6 61.8 211.3
24 06:00 24.3 29 6.42 5.1 11 15 1006.7 0 14.6 19.9 27.4 71.6 61.8 211.3
24 05:50 24.4 29 6.45 5.2 13 13 1006.7 0 14.6 19.9 27.5 71.8 62.0 212.2
24 05:40 24.1 29 6.34 5 13 13 1006.6 0 14.4 19.8 27.2 71.1 61.1 208.9
24 05:30 24.1 29 6.34 5 11 13 1006.5 0 14.4 19.8 27.2 71.1 61.1 208.8
24 05:20 24.5 29 6.49 5.3 9 11 1006.4 0 14.7 19.9 27.6 72.0 62.3 213.4
24 04:50 24.9 27 6.18 4.6 9 11 1006.3 0 14.0 19.4 26.5 69.1 58.8 201.0
24 04:40 23.7 29 6.2 4.6 13 13 1006.3 0 14.1 19.7 26.9 70.2 59.9 204.6
24 04:30 22.9 26 5.31 2.4 7 9 1006.3 0 12.3 18.7 24.4 63.4 51.2 173.9
24 04:20 23.9 28 6.06 4.3 7 7 1006.4 0 13.8 19.5 26.4 68.9 58.3 199.0
24 04:10 22.6 28 5.62 3.2 9 9 1006.5 0 13.0 19.2 25.4 66.2 54.6 185.8
24 04:00 21 24 4.4 -0.3 7 9 1006.4 0 10.5 18.0 22.1 57.2 43.0 144.8
24 03:50 20.6 25 4.47 -0.1 2 6 1006.4 0 10.6 18.1 22.4 58.1 43.9 148.0
24 03:40 20.6 22 3.94 -1.8 0 0 1006.5 0 9.5 17.5 20.8 53.8 38.5 129.1
24 03:30 20.8 21 3.8 -2.3 0 0 1006.6 0 9.2 17.3 20.3 52.5 37.0 123.9
24 03:20 20.7 21 3.78 -2.4 0 0 1006.6 0 9.2 17.3 20.3 52.4 36.9 123.4
24 03:10 20.8 22 3.98 -1.7 0 0 1006.6 0 9.6 17.5 20.9 54.0 38.8 130.2
24 03:00 21.2 22 4.08 -1.3 2 6 1006.7 0 9.8 17.5 21.1 54.5 39.6 133.2
24 02:50 21.4 22 4.12 -1.2 0 0 1006.7 0 9.9 17.6 21.1 54.7 40.0 134.2
24 02:40 21.6 23 4.36 -0.4 6 6 1006.8 0 10.4 17.8 21.8 56.5 42.3 142.4
24 02:30 21.2 23 4.26 -0.7 6 6 1006.9 0 10.2 17.8 21.6 56.0 41.5 139.5

Last Refresh: 24-Jan-2021 19:24:03

Most of the information presented on this site is sourced from the Bureau of Meteorology.  Copyright in all material sourced from the Bureau of Meteorology resides with the Commonwealth of Australia.